Etusivu
METAR-TAF:

METAR-TAF

Lentoasemat :

Weno, Weno Island, Mikronesia

Leveyspiiri: 07-28N, Pituuspiiri: 151-51E, korkeus merenpinnasta: 3 m

Tämänhetkinen sää

Tämä raportti tehtiin 51 minuuttia sitten, kello 17.56 UTC
Tuuli 4 kn eri suunnista
Lämpötila 26°C
Kosteus 94%
Ilmanpaine 1009 hPa
Näkyvyys: 24.1 km
Muutamia pilviä 1400 ft:n korkeudessa
Hajonneita pilviä 12000 ft:n korkeudessa
Pilvistä 28000 ft:n korkeudessa

METAR: PTKK 191756Z VRB04KT 15SM FEW014 BKN120 OVC280 26/25 A2981 RMK SLP098 8/171 T02610251 10283 20261 57007

Aika: 04:47 (18:47 UTC)

Sääennuste

Tämä raportti tehtiin 1 tunti ja 27 minuuttia sitten, kello 17.20 UTC
Ennuste voimassa 19. päivästä klo 18 UTC - 20. päivään klo 18 UTC
Tuuli 6 kn eri suunnista
Näkyvyys: 10 km
Muutamia pilviä 2000 ft:n korkeudessa
Hajanaisia pilviä 16000 ft:n korkeudessa
sadekuuroja näköpiirissä

TAF: PTKK 191720Z 1918/2018 VRB06KT P6SM VCSH FEW020 SCT160

Säähavainnot ja -ennusteet yli 4000 lentoasemalta (METAR- ja TAF-raportit).

Käytössä olevat sääasemat on merkitty karttaan keltaisilla ja punaisilla pisteillä.

Aseta hiiri pisteen päälle nähdäksesi sääaseman nimen.

Klikkaa sitten nähdäksesi säähavainnot ja -ennusteet.

Kartan vaihtaminen: klikkaa mustalla rastilla varustettuja vihreitä pisteitä, niin voit zoomata sisään; viivalla varustettua vihreää pistettä, niin voit zoomata ulos tai vihreitä nuolia, niin pääset viereisille kartoille.


METAR-TAF: